createdAt,value
2019-03-03T00:02:06.184Z,8.60
2019-03-03T00:04:35.958Z,8.50
2019-03-03T00:07:06.111Z,8.50
2019-03-03T00:09:36.374Z,8.50
2019-03-03T00:12:06.148Z,8.50
2019-03-03T00:14:35.922Z,8.50
2019-03-03T00:17:05.736Z,8.50
2019-03-03T00:19:35.519Z,8.50
2019-03-03T00:22:05.911Z,8.50
2019-03-03T00:24:35.726Z,8.50
2019-03-03T00:27:05.496Z,8.40
2019-03-03T00:29:36.158Z,8.40
2019-03-03T00:32:05.972Z,8.40
2019-03-03T00:34:35.676Z,8.40
2019-03-03T00:37:22.691Z,8.30
2019-03-03T00:39:54.275Z,8.30
2019-03-03T00:42:41.937Z,8.20
2019-03-03T00:45:14.644Z,8.20
2019-03-03T00:48:03.896Z,8.20
2019-03-03T00:50:38.121Z,8.20
2019-03-03T00:53:12.173Z,8.10
2019-03-03T00:55:43.590Z,8.10
2019-03-03T00:58:15.007Z,8.10
2019-03-03T01:00:52.168Z,8.10
2019-03-03T01:03:27.324Z,8.10
2019-03-03T01:06:01.754Z,8.10
2019-03-03T01:08:48.581Z,8.10
2019-03-03T01:11:35.631Z,8.00
2019-03-03T01:14:07.347Z,8.10
2019-03-03T01:16:55.122Z,8.10
2019-03-03T01:19:32.319Z,8.10
2019-03-03T01:22:13.594Z,8.00
2019-03-03T01:24:44.884Z,8.00
2019-03-03T01:27:14.918Z,8.00
2019-03-03T01:29:44.587Z,8.00
2019-03-03T01:32:14.369Z,8.10
2019-03-03T01:34:44.068Z,8.00
2019-03-03T01:37:13.882Z,8.00
2019-03-03T01:39:44.294Z,7.90
2019-03-03T01:42:14.073Z,7.90
2019-03-03T01:44:43.883Z,7.90
2019-03-03T01:47:14.258Z,7.90
2019-03-03T01:49:44.122Z,7.90
2019-03-03T01:52:13.915Z,7.90
2019-03-03T01:54:44.309Z,7.90
2019-03-03T01:57:14.080Z,7.90
2019-03-03T01:59:43.923Z,7.90
2019-03-03T02:02:14.159Z,7.90
2019-03-03T02:04:43.799Z,8.00
2019-03-03T02:07:13.607Z,8.10
2019-03-03T02:09:43.791Z,8.00
2019-03-03T02:12:13.567Z,8.00
2019-03-03T02:14:43.307Z,8.00
2019-03-03T02:17:14.226Z,8.00
2019-03-03T02:19:44.001Z,8.00
2019-03-03T02:22:13.913Z,8.00
2019-03-03T02:24:43.617Z,8.00
2019-03-03T02:27:13.455Z,8.00
2019-03-03T02:29:43.327Z,8.00
2019-03-03T02:32:13.370Z,8.00
2019-03-03T02:34:43.135Z,8.00
2019-03-03T02:37:13.016Z,8.00
2019-03-03T02:39:43.266Z,7.90
2019-03-03T02:42:13.100Z,7.90
2019-03-03T02:44:42.968Z,7.90
2019-03-03T02:47:13.051Z,7.90
2019-03-03T02:49:42.693Z,7.90
2019-03-03T02:52:12.444Z,7.90
2019-03-03T02:54:42.139Z,8.00
2019-03-03T02:57:11.839Z,7.90
2019-03-03T02:59:42.306Z,7.90
2019-03-03T03:02:13.654Z,8.00
2019-03-03T03:04:43.379Z,7.90
2019-03-03T03:07:14.800Z,7.90
2019-03-03T03:09:55.444Z,7.90
2019-03-03T03:12:30.868Z,7.80
2019-03-03T03:15:02.375Z,7.90
2019-03-03T03:17:33.908Z,7.90
2019-03-03T03:20:20.517Z,7.90
2019-03-03T03:22:57.996Z,7.90
2019-03-03T03:25:32.344Z,7.90
2019-03-03T03:28:03.762Z,7.80
2019-03-03T03:30:47.380Z,7.80
2019-03-03T03:33:24.581Z,7.70
2019-03-03T03:35:56.194Z,7.70
2019-03-03T03:38:33.090Z,7.70
2019-03-03T03:41:10.716Z,7.70
2019-03-03T03:43:42.137Z,7.70
2019-03-03T03:46:17.065Z,7.60
2019-03-03T03:48:51.474Z,7.50
2019-03-03T03:51:32.125Z,7.50
2019-03-03T03:54:06.778Z,7.60
2019-03-03T03:56:47.595Z,7.70
2019-03-03T03:59:19.299Z,7.70
2019-03-03T04:01:50.708Z,7.70
2019-03-03T04:04:22.091Z,7.60
2019-03-03T04:06:54.066Z,7.60
2019-03-03T04:09:25.661Z,7.50
2019-03-03T04:12:07.085Z,7.40
2019-03-03T04:14:39.073Z,7.40
2019-03-03T04:17:13.496Z,7.50
2019-03-03T04:19:45.468Z,7.50
2019-03-03T04:22:33.447Z,7.40
2019-03-03T04:25:20.889Z,7.50
2019-03-03T04:28:04.284Z,7.50
2019-03-03T04:30:36.203Z,7.50
2019-03-03T04:33:24.048Z,7.40
2019-03-03T04:35:55.455Z,7.40
2019-03-03T04:38:26.804Z,7.40
2019-03-03T04:41:14.242Z,7.40
2019-03-03T04:43:49.226Z,7.40
2019-03-03T04:46:24.279Z,7.60
2019-03-03T04:48:58.771Z,7.50
2019-03-03T04:51:42.298Z,7.50
2019-03-03T04:54:29.983Z,7.40
2019-03-03T04:57:13.372Z,7.30
2019-03-03T04:59:50.904Z,7.30
2019-03-03T05:02:31.814Z,7.30
2019-03-03T05:05:17.952Z,7.30
2019-03-03T05:07:49.399Z,7.20
2019-03-03T05:10:30.140Z,7.10
2019-03-03T05:13:10.315Z,7.10
2019-03-03T05:15:50.389Z,7.10
2019-03-03T05:18:23.621Z,7.10
2019-03-03T05:20:53.327Z,7.30
2019-03-03T05:23:23.110Z,7.30
2019-03-03T05:25:52.920Z,7.30
2019-03-03T05:28:23.154Z,7.30
2019-03-03T05:30:52.930Z,7.30
2019-03-03T05:33:22.738Z,7.30
2019-03-03T05:35:53.479Z,7.30
2019-03-03T05:38:23.183Z,7.20
2019-03-03T05:40:52.990Z,7.20
2019-03-03T05:43:23.053Z,7.20
2019-03-03T05:45:52.926Z,7.20
2019-03-03T05:48:22.666Z,7.20
2019-03-03T05:50:52.811Z,7.30
2019-03-03T05:53:22.447Z,7.30
2019-03-03T05:55:52.356Z,7.20
2019-03-03T05:58:22.856Z,7.30
2019-03-03T06:00:52.701Z,7.30
2019-03-03T06:03:22.512Z,7.40
2019-03-03T06:05:52.602Z,7.30
2019-03-03T06:08:22.376Z,7.30
2019-03-03T06:10:52.184Z,7.40
2019-03-03T06:13:22.447Z,7.30
2019-03-03T06:15:52.717Z,7.30
2019-03-03T06:18:22.460Z,7.40
2019-03-03T06:20:52.718Z,7.30
2019-03-03T06:23:22.344Z,7.40
2019-03-03T06:25:52.087Z,7.40
2019-03-03T06:28:21.794Z,7.50
2019-03-03T06:30:51.506Z,7.50
2019-03-03T06:33:21.182Z,7.40
2019-03-03T06:35:52.784Z,7.40
2019-03-03T06:38:22.723Z,7.40
2019-03-03T06:40:52.559Z,7.50
2019-03-03T06:43:22.330Z,7.50
2019-03-03T06:45:51.967Z,7.50
2019-03-03T06:48:21.799Z,7.50
2019-03-03T06:50:52.962Z,7.50
2019-03-03T06:53:23.165Z,7.50
2019-03-03T06:55:53.482Z,7.50
2019-03-03T06:58:23.189Z,7.50
2019-03-03T07:00:52.985Z,7.50
2019-03-03T07:03:23.102Z,7.50
2019-03-03T07:05:53.351Z,7.60
2019-03-03T07:08:23.345Z,7.60
2019-03-03T07:10:53.301Z,7.50
2019-03-03T07:13:23.491Z,7.60
2019-03-03T07:15:53.281Z,7.60
2019-03-03T07:18:23.444Z,7.70
2019-03-03T07:20:53.238Z,7.70
2019-03-03T07:23:23.367Z,7.70
2019-03-03T07:25:53.443Z,7.70
2019-03-03T07:28:23.355Z,7.80
2019-03-03T07:30:53.417Z,7.90
2019-03-03T07:33:25.259Z,7.90
2019-03-03T07:35:55.031Z,8.00
2019-03-03T07:38:24.811Z,8.00
2019-03-03T07:40:55.124Z,8.00
2019-03-03T07:43:24.900Z,8.10
2019-03-03T07:45:54.678Z,8.20
2019-03-03T07:48:25.315Z,8.20
2019-03-03T07:50:55.742Z,8.30
2019-03-03T07:53:26.157Z,8.40
2019-03-03T07:55:56.015Z,8.40
2019-03-03T07:58:25.804Z,8.50
2019-03-03T08:00:55.589Z,8.50
2019-03-03T08:03:25.317Z,8.60
2019-03-03T08:05:55.412Z,8.60
2019-03-03T08:08:25.183Z,8.60
2019-03-03T08:10:55.225Z,8.60
2019-03-03T08:13:25.219Z,8.70
2019-03-03T08:15:55.000Z,8.70
2019-03-03T08:18:25.629Z,8.80
2019-03-03T08:20:55.403Z,8.80
2019-03-03T08:23:25.179Z,8.90
2019-03-03T08:25:54.930Z,8.90
2019-03-03T08:28:25.119Z,8.90
2019-03-03T08:30:54.888Z,9.00
2019-03-03T08:33:24.635Z,9.00
2019-03-03T08:35:55.088Z,8.90
2019-03-03T08:38:24.865Z,8.90
2019-03-03T08:40:54.850Z,8.90
2019-03-03T08:43:26.514Z,9.00
2019-03-03T08:46:01.141Z,9.00
2019-03-03T08:48:41.488Z,9.00
2019-03-03T08:51:15.747Z,9.00
2019-03-03T08:54:03.233Z,9.00
2019-03-03T08:56:43.607Z,9.10
2019-03-03T08:59:21.036Z,9.10
2019-03-03T09:02:10.803Z,9.20
2019-03-03T09:04:45.435Z,9.20
2019-03-03T09:07:29.286Z,9.20
2019-03-03T09:10:12.538Z,9.10
2019-03-03T09:13:04.601Z,9.00
2019-03-03T09:15:39.000Z,9.00
2019-03-03T09:18:26.825Z,8.90
2019-03-03T09:21:04.034Z,8.90
2019-03-03T09:23:50.483Z,8.90
2019-03-03T09:26:21.903Z,8.90
2019-03-03T09:28:53.319Z,9.00
2019-03-03T09:31:30.271Z,8.90
2019-03-03T09:34:13.571Z,8.90
2019-03-03T09:36:47.924Z,8.90
2019-03-03T09:39:21.803Z,8.80
2019-03-03T09:41:56.707Z,8.90
2019-03-03T09:44:31.303Z,8.90
2019-03-03T09:47:02.760Z,8.90
2019-03-03T09:49:39.947Z,8.90
2019-03-03T09:52:27.529Z,8.90
2019-03-03T09:55:13.898Z,9.00
2019-03-03T09:57:57.587Z,9.10
2019-03-03T10:00:29.250Z,9.10
2019-03-03T10:03:07.422Z,9.10
2019-03-03T10:05:55.235Z,9.10
2019-03-03T10:08:36.025Z,9.10
2019-03-03T10:11:10.405Z,9.10
2019-03-03T10:13:50.975Z,9.00
2019-03-03T10:16:31.662Z,9.00
2019-03-03T10:19:07.127Z,8.90
2019-03-03T10:21:38.627Z,8.90
2019-03-03T10:24:26.519Z,9.00
2019-03-03T10:27:04.072Z,9.10
2019-03-03T10:29:51.999Z,9.20
2019-03-03T10:32:23.423Z,9.20
2019-03-03T10:34:57.262Z,9.20
2019-03-03T10:37:30.294Z,9.20
2019-03-03T10:40:01.642Z,9.20
2019-03-03T10:42:36.323Z,9.10
2019-03-03T10:45:16.098Z,9.00
2019-03-03T10:47:47.548Z,8.90
2019-03-03T10:50:18.960Z,8.80
2019-03-03T10:52:56.099Z,8.80
2019-03-03T10:55:30.159Z,8.70
2019-03-03T10:58:01.642Z,8.70
2019-03-03T11:00:49.330Z,8.70
2019-03-03T11:03:23.766Z,8.70
2019-03-03T11:05:58.221Z,8.80
2019-03-03T11:08:46.726Z,8.80
2019-03-03T11:11:23.987Z,8.80
2019-03-03T11:14:04.910Z,8.90
2019-03-03T11:16:36.363Z,8.90
2019-03-03T11:19:10.688Z,9.00
2019-03-03T11:21:50.914Z,9.00
2019-03-03T11:24:38.322Z,9.10
2019-03-03T11:27:28.192Z,9.10
2019-03-03T11:30:08.492Z,9.20
2019-03-03T11:32:39.931Z,9.30
2019-03-03T11:35:14.140Z,9.30
2019-03-03T11:38:02.020Z,9.30
2019-03-03T11:40:34.379Z,9.30
2019-03-03T11:43:24.112Z,9.10
2019-03-03T11:46:04.396Z,9.10
2019-03-03T11:48:35.746Z,9.10
2019-03-03T11:51:07.259Z,9.00
2019-03-03T11:53:38.802Z,8.90
2019-03-03T11:56:28.387Z,8.90
2019-03-03T11:59:11.599Z,9.00
2019-03-03T12:01:46.048Z,9.00
2019-03-03T12:04:33.858Z,9.10
2019-03-03T12:07:05.315Z,9.00
2019-03-03T12:09:39.960Z,9.00
2019-03-03T12:12:27.107Z,9.10
2019-03-03T12:14:58.527Z,9.00
2019-03-03T12:17:45.043Z,9.00
2019-03-03T12:20:16.804Z,9.00
2019-03-03T12:23:03.387Z,9.10
2019-03-03T12:25:51.003Z,9.10
2019-03-03T12:28:31.685Z,9.20
2019-03-03T12:31:08.843Z,9.10
2019-03-03T12:33:43.042Z,9.10
2019-03-03T12:36:17.186Z,9.10
2019-03-03T12:38:57.979Z,9.10
2019-03-03T12:41:32.087Z,9.10
2019-03-03T12:44:09.687Z,9.10
2019-03-03T12:46:41.158Z,9.20
2019-03-03T12:49:12.505Z,9.30
2019-03-03T12:51:58.783Z,9.30
2019-03-03T12:54:30.131Z,9.40
2019-03-03T12:57:07.087Z,9.40
2019-03-03T12:59:38.354Z,9.30
2019-03-03T13:02:25.773Z,9.30
2019-03-03T13:04:57.187Z,9.30
2019-03-03T13:07:28.768Z,9.30
2019-03-03T13:10:16.375Z,9.30
2019-03-03T13:13:03.999Z,9.30
2019-03-03T13:15:35.453Z,9.30
2019-03-03T13:18:06.972Z,9.20
2019-03-03T13:20:52.772Z,9.20
2019-03-03T13:23:43.392Z,9.20
2019-03-03T13:26:14.843Z,9.10
2019-03-03T13:29:02.343Z,9.10
2019-03-03T13:31:46.283Z,9.10
2019-03-03T13:34:33.873Z,9.10
2019-03-03T13:37:08.787Z,9.00
2019-03-03T13:39:40.151Z,8.90
2019-03-03T13:42:21.146Z,8.90
2019-03-03T13:44:50.968Z,8.90
2019-03-03T13:47:20.752Z,8.90
2019-03-03T13:49:50.569Z,8.90
2019-03-03T13:52:20.336Z,9.00
2019-03-03T13:54:50.114Z,9.00
2019-03-03T13:57:19.919Z,9.10
2019-03-03T13:59:49.716Z,9.10
2019-03-03T14:02:19.591Z,9.20
2019-03-03T14:04:49.323Z,9.30
2019-03-03T14:07:19.023Z,9.30
2019-03-03T14:09:48.969Z,9.40
2019-03-03T14:12:18.778Z,9.40
2019-03-03T14:14:48.899Z,9.40
2019-03-03T14:17:18.591Z,9.40
2019-03-03T14:19:48.401Z,9.40
2019-03-03T14:22:18.183Z,9.50
2019-03-03T14:24:50.164Z,9.40
2019-03-03T14:27:19.979Z,9.50
2019-03-03T14:29:49.615Z,9.50
2019-03-03T14:32:19.480Z,9.60
2019-03-03T14:34:49.458Z,9.60
2019-03-03T14:37:19.399Z,9.60
2019-03-03T14:39:49.384Z,9.70
2019-03-03T14:42:19.367Z,9.70
2019-03-03T14:44:49.206Z,9.70
2019-03-03T14:47:19.335Z,9.80
2019-03-03T14:49:49.159Z,9.70
2019-03-03T14:52:19.078Z,9.60
2019-03-03T14:54:49.222Z,9.60
2019-03-03T14:57:19.046Z,9.60
2019-03-03T14:59:48.955Z,9.60
2019-03-03T15:02:19.280Z,9.70
2019-03-03T15:04:49.160Z,9.70
2019-03-03T15:07:18.946Z,9.70
2019-03-03T15:09:48.735Z,9.70
2019-03-03T15:12:18.552Z,9.70
2019-03-03T15:14:48.671Z,9.70
2019-03-03T15:17:18.391Z,9.70
2019-03-03T15:19:48.194Z,9.70
2019-03-03T15:22:18.747Z,9.70
2019-03-03T15:24:48.685Z,9.70
2019-03-03T15:27:18.573Z,9.70
2019-03-03T15:29:48.367Z,9.70
2019-03-03T15:32:18.143Z,9.70
2019-03-03T15:34:47.891Z,9.70
2019-03-03T15:37:17.743Z,9.70
2019-03-03T15:39:47.547Z,9.70
2019-03-03T15:42:17.427Z,9.80
2019-03-03T15:44:47.234Z,9.80
2019-03-03T15:47:17.020Z,9.70
2019-03-03T15:49:46.755Z,9.70
2019-03-03T15:52:16.538Z,9.80
2019-03-03T15:54:46.324Z,9.90
2019-03-03T15:57:16.344Z,10.00
2019-03-03T15:59:46.127Z,10.10
2019-03-03T16:02:15.911Z,10.10
2019-03-03T16:04:45.729Z,10.20
2019-03-03T16:07:15.506Z,10.20
2019-03-03T16:09:45.330Z,10.20
2019-03-03T16:12:15.152Z,10.30
2019-03-03T16:14:44.935Z,10.20
2019-03-03T16:17:14.642Z,10.30
2019-03-03T16:19:44.603Z,10.30
2019-03-03T16:22:14.573Z,10.30
2019-03-03T16:24:44.481Z,10.30
2019-03-03T16:27:14.603Z,10.30
2019-03-03T16:29:44.389Z,10.30
2019-03-03T16:32:14.470Z,10.20
2019-03-03T16:34:44.349Z,10.20
2019-03-03T16:37:14.465Z,10.20
2019-03-03T16:39:44.246Z,10.20
2019-03-03T16:42:14.276Z,10.20
2019-03-03T16:44:44.223Z,10.20
2019-03-03T16:47:14.591Z,10.20
2019-03-03T16:49:44.603Z,10.20
2019-03-03T16:52:14.417Z,10.30
2019-03-03T16:54:44.273Z,10.30
2019-03-03T16:57:14.882Z,10.30
2019-03-03T16:59:44.655Z,10.40
2019-03-03T17:02:14.463Z,10.40
2019-03-03T17:04:44.278Z,10.40
2019-03-03T17:07:14.455Z,10.50
2019-03-03T17:09:44.246Z,10.50
2019-03-03T17:12:14.652Z,10.60
2019-03-03T17:14:44.350Z,10.60
2019-03-03T17:17:14.169Z,10.60
2019-03-03T17:19:44.439Z,10.70
2019-03-03T17:22:14.552Z,10.70
2019-03-03T17:24:44.478Z,10.70
2019-03-03T17:27:14.296Z,10.70
2019-03-03T17:29:44.175Z,10.70
2019-03-03T17:32:14.143Z,10.80
2019-03-03T17:34:44.191Z,10.80
2019-03-03T17:37:14.058Z,10.80
2019-03-03T17:39:44.129Z,10.90
2019-03-03T17:42:14.052Z,10.90
2019-03-03T17:44:44.115Z,11.00
2019-03-03T17:47:13.929Z,11.00
2019-03-03T17:49:43.883Z,11.00
2019-03-03T17:52:13.890Z,11.00
2019-03-03T17:54:44.068Z,11.00
2019-03-03T17:57:13.903Z,11.10
2019-03-03T17:59:43.810Z,11.10
2019-03-03T18:02:13.863Z,11.10
2019-03-03T18:04:43.765Z,11.10
2019-03-03T18:07:13.831Z,11.10
2019-03-03T18:09:43.648Z,11.10
2019-03-03T18:12:13.610Z,11.10
2019-03-03T18:14:43.708Z,11.10
2019-03-03T18:17:13.527Z,11.10
2019-03-03T18:19:44.478Z,11.20
2019-03-03T18:22:14.777Z,11.20
2019-03-03T18:24:44.559Z,11.20
2019-03-03T18:27:14.314Z,11.20
2019-03-03T18:29:44.025Z,11.10
2019-03-03T18:32:13.828Z,11.10
2019-03-03T18:34:43.881Z,11.10
2019-03-03T18:37:13.763Z,11.10
2019-03-03T18:39:43.719Z,11.10
2019-03-03T18:42:13.735Z,11.10
2019-03-03T18:44:43.812Z,11.10
2019-03-03T18:47:13.593Z,11.10
2019-03-03T18:49:43.411Z,11.10
2019-03-03T18:52:13.123Z,11.10
2019-03-03T18:54:42.903Z,11.10
2019-03-03T18:57:12.664Z,11.10
2019-03-03T18:59:43.251Z,11.00
2019-03-03T19:02:15.551Z,11.00
2019-03-03T19:04:45.863Z,10.90
2019-03-03T19:07:15.638Z,10.90
2019-03-03T19:09:45.419Z,10.90
2019-03-03T19:12:15.768Z,10.90
2019-03-03T19:14:45.478Z,10.80
2019-03-03T19:17:15.263Z,10.80
2019-03-03T19:19:45.747Z,10.80
2019-03-03T19:22:15.543Z,10.70
2019-03-03T19:24:45.465Z,10.70
2019-03-03T19:27:15.737Z,10.60
2019-03-03T19:29:45.527Z,10.60
2019-03-03T19:32:15.315Z,10.50
2019-03-03T19:34:45.211Z,10.40
2019-03-03T19:37:14.992Z,10.40
2019-03-03T19:39:45.799Z,10.30
2019-03-03T19:42:15.606Z,10.30
2019-03-03T19:44:45.417Z,10.30
2019-03-03T19:47:15.199Z,10.30
2019-03-03T19:49:44.949Z,10.20
2019-03-03T19:52:14.661Z,10.20
2019-03-03T19:54:44.438Z,10.20
2019-03-03T19:57:14.382Z,10.20
2019-03-03T19:59:45.180Z,10.20
2019-03-03T20:02:14.967Z,10.20
2019-03-03T20:04:45.273Z,10.10
2019-03-03T20:07:15.047Z,10.10
2019-03-03T20:09:44.831Z,10.10
2019-03-03T20:12:14.772Z,10.20
2019-03-03T20:14:44.872Z,10.10
2019-03-03T20:17:14.729Z,10.00
2019-03-03T20:19:44.407Z,10.00
2019-03-03T20:22:14.627Z,10.00
2019-03-03T20:24:44.509Z,9.90
2019-03-03T20:27:14.543Z,9.90
2019-03-03T20:29:44.636Z,9.90
2019-03-03T20:32:14.509Z,9.80
2019-03-03T20:34:44.344Z,9.80
2019-03-03T20:37:14.170Z,9.70
2019-03-03T20:39:44.231Z,9.70
2019-03-03T20:42:14.227Z,9.70
2019-03-03T20:44:44.217Z,9.60
2019-03-03T20:47:14.239Z,9.60
2019-03-03T20:49:44.960Z,9.70
2019-03-03T20:52:14.705Z,9.60
2019-03-03T20:54:45.179Z,9.60
2019-03-03T20:57:15.734Z,9.60
2019-03-03T20:59:45.584Z,9.60
2019-03-03T21:02:15.463Z,9.60
2019-03-03T21:04:45.320Z,9.60
2019-03-03T21:07:15.245Z,9.60
2019-03-03T21:09:45.204Z,9.50
2019-03-03T21:12:15.299Z,9.50
2019-03-03T21:14:46.013Z,9.50
2019-03-03T21:17:15.784Z,9.40
2019-03-03T21:19:45.454Z,9.40
2019-03-03T21:22:16.132Z,9.30
2019-03-03T21:24:46.592Z,9.30
2019-03-03T21:27:16.362Z,9.20
2019-03-03T21:29:46.139Z,9.20
2019-03-03T21:32:15.844Z,9.10
2019-03-03T21:34:45.823Z,9.00
2019-03-03T21:37:15.655Z,9.00
2019-03-03T21:39:45.604Z,8.90
2019-03-03T21:42:15.960Z,8.80
2019-03-03T21:44:45.672Z,8.80
2019-03-03T21:47:15.449Z,8.80
2019-03-03T21:49:45.114Z,8.70
2019-03-03T21:52:14.816Z,8.70
2019-03-03T21:54:46.885Z,8.70
2019-03-03T21:57:16.043Z,8.80
2019-03-03T21:59:45.811Z,8.70
2019-03-03T22:02:15.781Z,8.70
2019-03-03T22:04:46.431Z,8.70
2019-03-03T22:07:16.136Z,8.60
2019-03-03T22:09:45.872Z,8.50
2019-03-03T22:12:15.802Z,8.40
2019-03-03T22:14:45.712Z,8.20
2019-03-03T22:17:16.180Z,8.00
2019-03-03T22:19:45.960Z,8.00
2019-03-03T22:22:16.174Z,7.90
2019-03-03T22:24:46.373Z,7.90
2019-03-03T22:27:16.251Z,7.70
2019-03-03T22:29:46.374Z,7.30
2019-03-03T22:32:16.152Z,7.00
2019-03-03T22:34:46.306Z,6.70
2019-03-03T22:37:16.112Z,6.50
2019-03-03T22:39:46.323Z,6.30
2019-03-03T22:42:16.444Z,6.20
2019-03-03T22:44:46.115Z,6.00
2019-03-03T22:47:15.920Z,5.90
2019-03-03T22:49:45.939Z,5.70
2019-03-03T22:52:15.774Z,5.60
2019-03-03T22:54:45.895Z,5.50
2019-03-03T22:57:15.891Z,5.50
2019-03-03T22:59:45.602Z,5.40
2019-03-03T23:02:16.597Z,5.40
2019-03-03T23:05:04.470Z,5.30
2019-03-03T23:07:40.478Z,5.30
2019-03-03T23:10:19.146Z,5.30
2019-03-03T23:12:55.800Z,5.30
2019-03-03T23:15:31.834Z,5.40
2019-03-03T23:18:19.560Z,5.50
2019-03-03T23:21:07.035Z,5.50
2019-03-03T23:23:45.707Z,5.60
2019-03-03T23:26:16.854Z,5.70
2019-03-03T23:28:46.802Z,5.70
2019-03-03T23:31:16.583Z,5.70
2019-03-03T23:33:46.455Z,5.70
2019-03-03T23:36:16.387Z,5.70
2019-03-03T23:38:46.162Z,5.70
2019-03-03T23:41:15.898Z,5.60
2019-03-03T23:43:45.534Z,5.60
2019-03-03T23:46:15.663Z,5.60
2019-03-03T23:48:46.090Z,5.60
2019-03-03T23:51:16.067Z,5.60
2019-03-03T23:53:45.899Z,5.60
2019-03-03T23:56:15.917Z,5.50
2019-03-03T23:58:45.795Z,5.50
